Penngrove, California
Current Conditions -  °F | °C
As of 10:55 AM on Monday 20 Oct 2014 (Local Time) from KO69 Reporting Station
Overcast Overcast  
Wind Chill: 64°   Ceiling: 4500
Heat Index: 64°   Visibility: 10mi
Dew Point: 59°   Wind: 7mph
Humidity: 83%   Direction: 270°W
Pressure: 29.98"   Gusts: NA
Location:  38.3°N, 122.67°W
Report Text: KO69 201755Z AUTO 27006KT 10SM FEW013 SCT018 OVC045 18/15 A2998 RMK AO1
Loading
Personal Weather Stations






























Interactive Weather Map
Tropical Storm Tracking
New forecast layout! Learn more

10-Day Weather Forecast

Advertisements
Track Severe Weather on mobile